Time;durP1;ratioP1;P1;durP2;ratioP2;P2;SDS_P1;SDS_P2;PMS_P1;PMS_P2;Temp;Humidity;BMP_temperature;BMP_pressure;BME280_temperature;BME280_humidity;BME280_pressure;Samples;Min_cycle;Max_cycle;Signal;HPM_P1;HPM_P2
2022/07/14 00:00:39;;;;;;;1.5;1.1;;;;;;;20.67;62.00195;943.017;;;;
2022/07/14 00:03:08;;;;;;;1;0.9;;;;;;;20.61;61.58594;943.0471;;;;
2022/07/14 00:05:35;;;;;;;1.4;0.9;;;;;;;20.63;61.59863;942.9847;;;;
2022/07/14 00:08:02;;;;;;;1.5;1;;;;;;;20.56;61.50684;942.9941;;;;
2022/07/14 00:10:27;;;;;;;1.2;1;;;;;;;20.54;61.69141;943.009;;;;
2022/07/14 00:12:55;;;;;;;1.3;1.1;;;;;;;20.54;62.19434;943.0162;;;;
2022/07/14 00:15:20;;;;;;;0.9;0.9;;;;;;;20.48;62.2207;943.0458;;;;
2022/07/14 00:17:46;;;;;;;1.2;1.1;;;;;;;20.48;62.68652;942.9698;;;;
2022/07/14 00:20:11;;;;;;;1.3;1.2;;;;;;;20.46;62.67383;942.9645;;;;
2022/07/14 00:22:40;;;;;;;0.8;0.8;;;;;;;20.41;63.08691;942.8795;;;;
2022/07/14 00:25:03;;;;;;;1;1;;;;;;;20.42;63.12109;942.8795;;;;
2022/07/14 00:27:32;;;;;;;1.6;1.1;;;;;;;20.4;63.45801;942.9167;;;;
2022/07/14 00:30:02;;;;;;;2.1;1.2;;;;;;;20.34;62.71387;942.875;;;;
2022/07/14 00:32:34;;;;;;;1.6;1;;;;;;;20.34;63.18164;942.8306;;;;
2022/07/14 00:35:04;;;;;;;1.1;1;;;;;;;20.23;62.5;942.765;;;;
2022/07/14 00:37:29;;;;;;;1.9;1;;;;;;;20.22;63.10449;942.8264;;;;
2022/07/14 00:39:56;;;;;;;1.2;0.9;;;;;;;20.32;63.1084;942.8116;;;;
2022/07/14 00:42:21;;;;;;;2.6;1.2;;;;;;;20.24;63.37695;942.7712;;;;
2022/07/14 00:44:48;;;;;;;1.4;1.1;;;;;;;20.33;63.7168;942.7273;;;;
2022/07/14 00:47:13;;;;;;;1.1;1;;;;;;;20.23;62.15039;942.7011;;;;
2022/07/14 00:49:43;;;;;;;1.2;0.9;;;;;;;20.14;62.7207;942.692;;;;
2022/07/14 00:52:08;;;;;;;1.5;1;;;;;;;20.1;62.75;942.7083;;;;
2022/07/14 00:54:34;;;;;;;0.9;0.9;;;;;;;19.81;63.33887;942.6665;;;;
2022/07/14 00:56:59;;;;;;;1.4;0.9;;;;;;;19.67;63.36523;942.6158;;;;
2022/07/14 00:59:28;;;;;;;1.4;1.3;;;;;;;19.85;65.35156;942.5892;;;;
2022/07/14 01:01:54;;;;;;;2.5;1.2;;;;;;;19.9;64.38965;942.6222;;;;
2022/07/14 01:04:21;;;;;;;1.1;1;;;;;;;19.93;63.57813;942.6233;;;;
2022/07/14 01:06:46;;;;;;;1.2;1.1;;;;;;;19.9;64.26172;942.5576;;;;
2022/07/14 01:09:13;;;;;;;1.3;1.2;;;;;;;19.98;63.24609;942.572;;;;
2022/07/14 01:11:38;;;;;;;2.5;1.1;;;;;;;19.77;63.75293;942.5847;;;;
2022/07/14 01:14:04;;;;;;;1.5;1.1;;;;;;;19.83;63.9707;942.567;;;;
2022/07/14 01:16:29;;;;;;;2;1.1;;;;;;;19.95;63.67285;942.5769;;;;
2022/07/14 01:18:56;;;;;;;1.6;1.1;;;;;;;19.99;64.74121;942.5273;;;;
2022/07/14 01:21:21;;;;;;;1.4;1;;;;;;;20.09;64.05566;942.5621;;;;
2022/07/14 01:23:47;;;;;;;1.4;1.1;;;;;;;20.1;64.4082;942.5999;;;;
2022/07/14 01:26:12;;;;;;;2.2;1.2;;;;;;;20.12;64.08301;942.6479;;;;
2022/07/14 01:28:40;;;;;;;1.2;1.1;;;;;;;20.12;64.11816;942.6448;;;;
2022/07/14 01:31:04;;;;;;;2.2;1.1;;;;;;;20.16;63.7041;942.6125;;;;
2022/07/14 01:33:31;;;;;;;1.5;1.1;;;;;;;20.19;62.7041;942.6555;;;;
2022/07/14 01:35:56;;;;;;;1;0.9;;;;;;;20.14;62.70801;942.6476;;;;
2022/07/14 01:38:23;;;;;;;1.5;1.3;;;;;;;20.01;62.7373;942.6088;;;;
2022/07/14 01:40:48;;;;;;;1.6;1;;;;;;;20.04;63.54688;942.597;;;;
2022/07/14 01:43:17;;;;;;;1.6;1.1;;;;;;;20.01;62.29395;942.611;;;;
2022/07/14 01:45:42;;;;;;;1.1;1;;;;;;;19.94;63.13477;942.5059;;;;
2022/07/14 01:48:11;;;;;;;1.2;1.1;;;;;;;19.88;63.94336;942.5377;;;;
2022/07/14 01:50:36;;;;;;;1.8;1.3;;;;;;;19.91;63.9707;942.5363;;;;
2022/07/14 01:53:06;;;;;;;2.1;1.2;;;;;;;19.87;64.15234;942.5517;;;;
2022/07/14 01:55:31;;;;;;;1.5;1.1;;;;;;;19.87;63.25391;942.5056;;;;
2022/07/14 01:57:58;;;;;;;1.3;1;;;;;;;19.95;63.9541;942.5597;;;;
2022/07/14 02:00:24;;;;;;;1.2;1.1;;;;;;;20.02;63.68457;942.6128;;;;
2022/07/14 02:02:53;;;;;;;1.1;1;;;;;;;19.97;63.74805;942.6805;;;;
2022/07/14 02:05:20;;;;;;;2.7;0.9;;;;;;;19.99;64.40234;942.6462;;;;
2022/07/14 02:07:44;;;;;;;1.5;1.1;;;;;;;19.78;64.6875;942.6258;;;;
2022/07/14 02:12:42;;;;;;;1;1;;;;;;;19.68;64.95215;942.5736;;;;
2022/07/14 02:15:07;;;;;;;1.9;1;;;;;;;19.71;64.99121;942.5399;;;;
2022/07/14 02:17:37;;;;;;;1.8;1;;;;;;;19.78;64.5127;942.5812;;;;
2022/07/14 02:20:03;;;;;;;1.3;1.2;;;;;;;19.79;64.11719;942.6046;;;;
2022/07/14 02:22:28;;;;;;;1.3;1.2;;;;;;;19.81;65.00586;942.5541;;;;
2022/07/14 02:24:53;;;;;;;2.7;1.1;;;;;;;19.78;64.0459;942.503;;;;
2022/07/14 02:27:21;;;;;;;1.2;1;;;;;;;19.83;63.5293;942.478;;;;
2022/07/14 02:29:46;;;;;;;1.2;1.1;;;;;;;19.88;64.29395;942.4924;;;;
2022/07/14 02:32:13;;;;;;;1.2;1.1;;;;;;;19.75;64.14648;942.3582;;;;
2022/07/14 02:34:38;;;;;;;3.3;1.3;;;;;;;19.63;64.78125;942.337;;;;
2022/07/14 02:37:06;;;;;;;2.1;0.9;;;;;;;19.6;64.5791;942.3703;;;;
2022/07/14 02:39:31;;;;;;;1.2;1.1;;;;;;;19.57;64.49414;942.3112;;;;
2022/07/14 02:42:00;;;;;;;1.1;1;;;;;;;19.53;64.19531;942.4182;;;;
2022/07/14 02:44:25;;;;;;;1.5;1.1;;;;;;;19.61;64.24219;942.3476;;;;
2022/07/14 02:46:53;;;;;;;1;0.8;;;;;;;19.72;65.71582;942.3434;;;;
2022/07/14 02:49:18;;;;;;;1.9;1.2;;;;;;;19.78;64.89746;942.3002;;;;
2022/07/14 02:51:45;;;;;;;2;1;;;;;;;19.81;64.20117;942.3861;;;;
2022/07/14 02:54:10;;;;;;;1.4;1.1;;;;;;;19.86;64.59473;942.4038;;;;
2022/07/14 02:56:37;;;;;;;3.9;1.4;;;;;;;19.92;63.54102;942.4553;;;;
2022/07/14 02:59:02;;;;;;;1.7;1;;;;;;;19.88;62.49707;942.4648;;;;
2022/07/14 03:01:29;;;;;;;1.2;1.1;;;;;;;19.88;63.18555;942.427;;;;
2022/07/14 03:03:54;;;;;;;1.3;0.9;;;;;;;19.85;61.8291;942.3766;;;;
2022/07/14 03:06:24;;;;;;;1.5;1.3;;;;;;;19.81;62.44043;942.4539;;;;
2022/07/14 03:08:55;;;;;;;3.4;1.3;;;;;;;19.73;63.04688;942.3602;;;;
2022/07/14 03:11:25;;;;;;;2.1;1.3;;;;;;;19.68;63.69336;942.3126;;;;
2022/07/14 03:13:50;;;;;;;3.6;1.3;;;;;;;19.59;64.27441;942.1694;;;;
2022/07/14 03:16:16;;;;;;;2.9;1.2;;;;;;;19.4;64.99316;942.1456;;;;
2022/07/14 03:18:46;;;;;;;2.2;1.3;;;;;;;19.52;65.08008;942.3022;;;;
2022/07/14 03:21:14;;;;;;;1.6;1.3;;;;;;;19.66;65.83594;942.4252;;;;
2022/07/14 03:23:40;;;;;;;1.4;1.3;;;;;;;19.76;65.64063;942.3603;;;;
2022/07/14 03:26:05;;;;;;;1.5;1.2;;;;;;;19.77;66.93652;942.3892;;;;
2022/07/14 03:28:31;;;;;;;2.7;1.2;;;;;;;19.68;65.94336;942.3588;;;;
2022/07/14 03:30:57;;;;;;;2.9;1.3;;;;;;;19.71;65.64355;942.3323;;;;
2022/07/14 03:33:26;;;;;;;2.4;1.3;;;;;;;19.73;66.26563;942.4175;;;;
2022/07/14 03:35:51;;;;;;;1.6;1.2;;;;;;;19.69;65.83887;942.5347;;;;
2022/07/14 03:38:20;;;;;;;1.4;1.1;;;;;;;19.47;64.98047;942.568;;;;
2022/07/14 03:40:45;;;;;;;2;1.3;;;;;;;19.38;64.36133;942.696;;;;
2022/07/14 03:43:12;;;;;;;1.1;1;;;;;;;19.49;63.12891;942.6097;;;;
2022/07/14 03:45:38;;;;;;;2.1;1;;;;;;;19.59;64.07813;942.5603;;;;
2022/07/14 03:48:08;;;;;;;1.1;1;;;;;;;19.68;63.76367;942.4751;;;;
2022/07/14 03:50:37;;;;;;;1.7;1;;;;;;;19.6;64.64941;942.5245;;;;
2022/07/14 03:53:02;;;;;;;1.6;0.9;;;;;;;19.63;64.73438;942.4961;;;;
2022/07/14 03:55:29;;;;;;;2.2;1.2;;;;;;;19.49;64.77344;942.4941;;;;
2022/07/14 03:57:54;;;;;;;1.2;1.1;;;;;;;19.51;61.12793;942.4202;;;;
2022/07/14 04:02:33;;;;;;;1.4;1.1;;;;;;;19.8;62.53223;942.4041;;;;
2022/07/14 04:05:01;;;;;;;1.2;1.1;;;;;;;19.92;63.64648;942.3712;;;;
2022/07/14 04:07:26;;;;;;;2.1;1.2;;;;;;;19.93;62.45801;942.3233;;;;
2022/07/14 04:09:56;;;;;;;1;1;;;;;;;19.98;62.97852;942.3547;;;;
2022/07/14 04:12:21;;;;;;;1.4;1;;;;;;;20;63.15723;942.3203;;;;
2022/07/14 04:14:49;;;;;;;1.1;1;;;;;;;19.96;63.23242;942.3777;;;;
2022/07/14 04:17:15;;;;;;;2;1.2;;;;;;;20.08;62.5957;942.4387;;;;
2022/07/14 04:19:39;;;;;;;2.3;1.1;;;;;;;19.98;61.87012;942.4055;;;;
2022/07/14 04:22:06;;;;;;;2.3;1.3;;;;;;;20.07;62.33594;942.4623;;;;
2022/07/14 04:24:31;;;;;;;2.6;1.1;;;;;;;20;59.63184;942.4828;;;;
2022/07/14 04:26:59;;;;;;;1.2;1;;;;;;;20.13;60.6416;942.5646;;;;
2022/07/14 04:29:24;;;;;;;1.9;1;;;;;;;20;62.11816;942.6202;;;;
2022/07/14 04:31:51;;;;;;;2.5;1.1;;;;;;;19.74;63.14258;942.7154;;;;
2022/07/14 04:34:16;;;;;;;1.9;1.5;;;;;;;19.73;63.65332;942.6809;;;;
2022/07/14 04:36:43;;;;;;;4;1.5;;;;;;;19.83;64.07617;942.7173;;;;
2022/07/14 04:39:08;;;;;;;1.3;1.2;;;;;;;19.83;64.7998;942.7763;;;;
2022/07/14 04:41:37;;;;;;;1.4;1.3;;;;;;;19.84;64.06543;942.8044;;;;
2022/07/14 04:44:01;;;;;;;1.3;1.2;;;;;;;19.84;64.40332;942.882;;;;
2022/07/14 04:46:29;;;;;;;2.6;1.4;;;;;;;19.82;63.83105;943.0566;;;;
2022/07/14 04:53:47;;;;;;;2.2;1.4;;;;;;;19.85;64.38281;943.041;;;;
2022/07/14 04:56:15;;;;;;;2.3;1.5;;;;;;;19.73;64.0498;942.8442;;;;
2022/07/14 04:58:40;;;;;;;2.9;1.6;;;;;;;19.59;64.26465;942.7801;;;;
2022/07/14 05:01:09;;;;;;;3.7;1.4;;;;;;;19.72;64.21289;942.7076;;;;
2022/07/14 05:03:34;;;;;;;2.2;1.2;;;;;;;19.84;63.96094;942.6355;;;;
2022/07/14 05:06:01;;;;;;;1;0.9;;;;;;;19.79;60.75879;942.641;;;;
2022/07/14 05:08:26;;;;;;;1.9;1.3;;;;;;;19.84;64.14844;942.6418;;;;
2022/07/14 05:10:55;;;;;;;1.9;1.2;;;;;;;19.86;62.27148;942.573;;;;
2022/07/14 05:13:20;;;;;;;2.5;1.3;;;;;;;20;61.98926;942.4966;;;;
2022/07/14 05:15:50;;;;;;;2.5;1.2;;;;;;;20.14;62.03223;942.481;;;;
2022/07/14 05:18:16;;;;;;;1;1;;;;;;;20.16;63.02734;942.4531;;;;
2022/07/14 05:20:46;;;;;;;3.5;1.3;;;;;;;20.11;63.47559;942.3684;;;;
2022/07/14 05:23:11;;;;;;;2.5;1.2;;;;;;;20.1;63.64844;942.4867;;;;
2022/07/14 05:25:41;;;;;;;2.1;1.1;;;;;;;20.2;62.54297;942.4725;;;;
2022/07/14 05:28:10;;;;;;;1.9;1;;;;;;;20.28;62.78711;942.5375;;;;
2022/07/14 05:30:35;;;;;;;1;0.9;;;;;;;20.35;61.94531;942.5464;;;;
2022/07/14 05:33:04;;;;;;;1.2;1.1;;;;;;;20.5;63.1582;942.4814;;;;
2022/07/14 05:35:29;;;;;;;2;1.2;;;;;;;20.57;64.18359;942.4111;;;;
2022/07/14 05:38:01;;;;;;;1.4;1.1;;;;;;;20.46;61.69238;942.3561;;;;
2022/07/14 05:40:33;;;;;;;1.3;1.2;;;;;;;20.35;60.83691;942.4517;;;;
2022/07/14 05:43:02;;;;;;;1.6;1;;;;;;;20.69;62.44824;942.4533;;;;
2022/07/14 05:45:28;;;;;;;1.6;1.1;;;;;;;21.12;63.12988;942.4792;;;;
2022/07/14 05:47:53;;;;;;;1.5;1.2;;;;;;;21.58;59.95215;942.4684;;;;
2022/07/14 05:50:23;;;;;;;1.4;1.2;;;;;;;22.39;56.66992;942.5098;;;;
2022/07/14 05:52:54;;;;;;;1.6;1.3;;;;;;;23.44;56.65137;942.5627;;;;
2022/07/14 05:55:23;;;;;;;2;1.1;;;;;;;25.1;49.68652;942.4934;;;;
2022/07/14 05:57:48;;;;;;;1.1;1;;;;;;;26;46.28613;942.436;;;;
2022/07/14 06:00:16;;;;;;;2.4;1.4;;;;;;;25.53;48.51758;942.4064;;;;
2022/07/14 06:02:41;;;;;;;2.7;1.2;;;;;;;25.8;46.25391;942.4319;;;;
2022/07/14 06:05:10;;;;;;;2.4;1.3;;;;;;;26.84;43.75488;942.3938;;;;
2022/07/14 06:07:35;;;;;;;2.8;1.2;;;;;;;28.33;41.18945;942.3474;;;;
2022/07/14 06:10:01;;;;;;;2.9;1.2;;;;;;;29.77;36.80176;942.2734;;;;
2022/07/14 06:12:26;;;;;;;2.9;0.9;;;;;;;30.28;37.08203;942.275;;;;
2022/07/14 06:14:53;;;;;;;2.1;0.9;;;;;;;29.58;35.53418;942.301;;;;
2022/07/14 06:17:18;;;;;;;2.1;1;;;;;;;29.83;35.97168;942.353;;;;
2022/07/14 06:19:43;;;;;;;1.1;1;;;;;;;29.24;38.27148;942.3253;;;;
2022/07/14 06:22:10;;;;;;;1.7;1;;;;;;;28;39.85352;942.2426;;;;
2022/07/14 06:24:35;;;;;;;1.5;1.4;;;;;;;28.08;40.16992;942.2173;;;;
2022/07/14 06:27:04;;;;;;;1.8;1.2;;;;;;;28.13;39.23535;942.2058;;;;
2022/07/14 06:29:29;;;;;;;1.2;1.1;;;;;;;26.81;41.5;942.2397;;;;
2022/07/14 06:31:59;;;;;;;1.6;1.3;;;;;;;26.3;41.99805;942.2299;;;;
2022/07/14 06:34:29;;;;;;;2.1;1.1;;;;;;;25.68;43.45313;942.2594;;;;
2022/07/14 06:37:00;;;;;;;2.4;1.2;;;;;;;26.07;44.16504;942.2975;;;;
2022/07/14 06:39:31;;;;;;;1.8;0.9;;;;;;;27.18;44.87891;942.2653;;;;
2022/07/14 06:42:03;;;;;;;1.3;1.2;;;;;;;27.37;41.43457;942.2701;;;;
2022/07/14 06:44:33;;;;;;;1.4;0.9;;;;;;;27.43;41.87793;942.2281;;;;
2022/07/14 06:47:02;;;;;;;4.6;1.6;;;;;;;27.93;40.17969;942.1799;;;;
2022/07/14 06:49:27;;;;;;;2;1.1;;;;;;;27.56;40.27637;942.0991;;;;
2022/07/14 06:51:56;;;;;;;2.6;1.5;;;;;;;29.25;36.88965;942.0486;;;;
2022/07/14 06:54:25;;;;;;;1.5;1.1;;;;;;;30.37;34.35547;941.9794;;;;
2022/07/14 06:56:50;;;;;;;2.4;1.3;;;;;;;29.98;35.49414;942.0567;;;;
2022/07/14 06:59:17;;;;;;;5.1;1.1;;;;;;;28.86;37.12109;942.0466;;;;
2022/07/14 07:01:43;;;;;;;1.3;1.2;;;;;;;27.93;38.79004;941.9047;;;;
2022/07/14 07:04:10;;;;;;;4.3;1.1;;;;;;;27.18;40.21973;941.9774;;;;
2022/07/14 07:06:48;;;;;;;2;1.4;;;;;;;26.55;40.7666;941.9973;;;;
2022/07/14 07:09:04;;;;;;;1.7;1.1;;;;;;;26.12;45.97949;941.9402;;;;
2022/07/14 07:11:29;;;;;;;2.6;1.1;;;;;;;25.65;45.86035;941.9412;;;;
2022/07/14 07:13:56;;;;;;;4.7;1.4;;;;;;;25.55;47.19629;941.8722;;;;
2022/07/14 07:16:25;;;;;;;1.4;1.1;;;;;;;25.33;46.94922;941.8735;;;;
2022/07/14 07:18:54;;;;;;;1;1;;;;;;;25.22;47.16211;941.9172;;;;
2022/07/14 07:21:22;;;;;;;1.9;1.1;;;;;;;24.75;46.32227;941.9327;;;;
2022/07/14 07:23:46;;;;;;;3.7;1.4;;;;;;;24.65;46.31152;941.9924;;;;
2022/07/14 07:26:12;;;;;;;1.5;1.2;;;;;;;24.7;47.29492;941.9578;;;;
2022/07/14 07:28:37;;;;;;;1.4;1.1;;;;;;;24.72;48.26465;941.9193;;;;
2022/07/14 07:31:06;;;;;;;3.2;1.3;;;;;;;24.91;48.86328;941.9267;;;;
2022/07/14 07:33:32;;;;;;;4.9;1.5;;;;;;;24.95;49.83496;941.9172;;;;
2022/07/14 07:36:01;;;;;;;2.7;1.6;;;;;;;25.13;49.99805;941.9443;;;;
2022/07/14 07:38:31;;;;;;;2.1;1.3;;;;;;;25.61;48.83398;941.8809;;;;
2022/07/14 07:40:56;;;;;;;1.9;1.4;;;;;;;26.58;46.77246;941.8599;;;;
2022/07/14 07:43:23;;;;;;;3.1;2.5;;;;;;;28.41;40.5791;941.7802;;;;
2022/07/14 07:45:48;;;;;;;1.6;1.5;;;;;;;30.16;37.72949;941.7291;;;;
2022/07/14 07:48:16;;;;;;;2.9;1.1;;;;;;;31.81;34.8584;941.6555;;;;
2022/07/14 07:50:41;;;;;;;1.3;1.1;;;;;;;32.58;32.71094;941.6588;;;;
2022/07/14 07:53:09;;;;;;;1.2;1.1;;;;;;;32.17;33.89258;941.6777;;;;
2022/07/14 07:55:34;;;;;;;2;1;;;;;;;30.81;37.37598;941.6831;;;;
2022/07/14 07:58:01;;;;;;;1.3;1.1;;;;;;;29.94;38.62891;941.6794;;;;
2022/07/14 08:00:26;;;;;;;1.1;0.9;;;;;;;29.68;40.33496;941.6369;;;;
2022/07/14 08:02:54;;;;;;;1.3;0.8;;;;;;;28.58;42.35449;941.5835;;;;
2022/07/14 08:05:18;;;;;;;1;0.9;;;;;;;28.31;42.22266;941.5292;;;;
2022/07/14 08:07:48;;;;;;;1;0.9;;;;;;;28.61;39.95508;941.5527;;;;
2022/07/14 08:10:13;;;;;;;1.6;1.3;;;;;;;28.09;40.16992;941.4172;;;;
2022/07/14 08:12:40;;;;;;;1.7;1;;;;;;;27.74;39.5332;941.3292;;;;
2022/07/14 08:15:05;;;;;;;2.6;1;;;;;;;28.16;37.92969;941.3304;;;;
2022/07/14 08:17:33;;;;;;;1.5;1.3;;;;;;;28.39;37.46289;941.3298;;;;
2022/07/14 08:19:58;;;;;;;1.3;1.2;;;;;;;29.04;37.79102;941.3313;;;;
2022/07/14 08:22:24;;;;;;;3.3;1.1;;;;;;;29.97;36.01855;941.2639;;;;
2022/07/14 08:24:49;;;;;;;3.9;2.4;;;;;;;30.5;35.27246;941.255;;;;
2022/07/14 08:27:17;;;;;;;1.2;0.9;;;;;;;30.35;35.92969;941.158;;;;
2022/07/14 08:29:42;;;;;;;2.1;1.2;;;;;;;30.77;33.97852;941.0795;;;;
2022/07/14 08:32:09;;;;;;;2.1;1;;;;;;;31.54;33.68945;941.0767;;;;
2022/07/14 08:34:34;;;;;;;1.2;1.1;;;;;;;33.23;32.64941;941.0764;;;;
2022/07/14 08:37:00;;;;;;;1.2;1.1;;;;;;;34.96;29.99902;941.0051;;;;
2022/07/14 08:39:27;;;;;;;3.1;1;;;;;;;35.47;27.20703;940.9776;;;;
2022/07/14 08:41:54;;;;;;;0.8;0.8;;;;;;;34.77;26.98438;940.9196;;;;
2022/07/14 08:44:21;;;;;;;2.2;0.9;;;;;;;35.11;27.93359;940.8865;;;;
2022/07/14 08:46:46;;;;;;;1.3;0.6;;;;;;;34.88;28.05176;940.8492;;;;
2022/07/14 08:49:16;;;;;;;1.8;1.1;;;;;;;35.62;28.7373;940.7994;;;;
2022/07/14 08:51:41;;;;;;;2.4;1;;;;;;;35.87;28.00488;940.7885;;;;
2022/07/14 08:54:08;;;;;;;1.7;0.7;;;;;;;35.59;27.1543;940.7617;;;;
2022/07/14 08:56:33;;;;;;;1.4;0.8;;;;;;;36.19;26.59668;940.6996;;;;
2022/07/14 08:59:01;;;;;;;1.4;1;;;;;;;35.87;29.14063;940.7183;;;;
2022/07/14 09:01:28;;;;;;;1.7;0.7;;;;;;;36.87;27;940.7126;;;;
2022/07/14 09:03:56;;;;;;;1.6;1;;;;;;;37.74;28.09473;940.6476;;;;
2022/07/14 09:06:21;;;;;;;0.8;0.8;;;;;;;36.72;26.08203;940.5853;;;;
2022/07/14 09:08:46;;;;;;;0.8;0.8;;;;;;;36.18;30.58789;940.4892;;;;
2022/07/14 09:11:11;;;;;;;1.5;1;;;;;;;35.61;28.70117;940.4429;;;;
2022/07/14 09:13:38;;;;;;;1.3;1.2;;;;;;;37.37;27.98633;940.4437;;;;
2022/07/14 09:16:03;;;;;;;1.2;0.9;;;;;;;36.63;29.93945;940.3956;;;;
2022/07/14 09:18:31;;;;;;;2.4;1;;;;;;;38.54;26.61133;940.3303;;;;
2022/07/14 09:20:58;;;;;;;1.2;1;;;;;;;38.4;25.71582;940.3217;;;;
2022/07/14 09:23:21;;;;;;;2;0.7;;;;;;;38.12;26.98828;940.2949;;;;
2022/07/14 09:25:48;;;;;;;1.5;0.5;;;;;;;37.71;22.29199;940.3365;;;;
2022/07/14 09:28:13;;;;;;;1.8;0.9;;;;;;;38.39;22.37305;940.2216;;;;
2022/07/14 09:30:38;;;;;;;1;0.6;;;;;;;38.43;20.89258;940.2172;;;;
2022/07/14 09:33:05;;;;;;;0.9;0.6;;;;;;;39.07;20.21582;940.1936;;;;
2022/07/14 09:35:36;;;;;;;0.7;0.7;;;;;;;39.87;21.39648;940.1509;;;;
2022/07/14 09:38:01;;;;;;;1.4;0.9;;;;;;;38.92;20.79297;940.1042;;;;
2022/07/14 09:40:29;;;;;;;0.6;0.6;;;;;;;38.01;21.60156;940.0363;;;;
2022/07/14 09:42:56;;;;;;;0.9;0.7;;;;;;;38.56;18.89258;940.0229;;;;
2022/07/14 09:45:21;;;;;;;1.2;0.7;;;;;;;38.45;19.58105;939.943;;;;
2022/07/14 09:47:50;;;;;;;4.8;0.9;;;;;;;37.43;19.3916;939.9055;;;;
2022/07/14 09:50:21;;;;;;;0.5;0.5;;;;;;;36.68;22.67773;939.9272;;;;
2022/07/14 09:52:51;;;;;;;3.9;0.8;;;;;;;36.88;21.83984;939.8337;;;;
2022/07/14 09:55:17;;;;;;;1.9;0.6;;;;;;;36.66;23.01563;939.8084;;;;
2022/07/14 09:57:44;;;;;;;1.3;0.8;;;;;;;37.52;23.24023;939.7554;;;;
2022/07/14 10:00:10;;;;;;;1.8;0.7;;;;;;;37.08;20.51563;939.6874;;;;
2022/07/14 10:02:34;;;;;;;1.8;0.6;;;;;;;37.16;23.125;939.6476;;;;
2022/07/14 10:05:01;;;;;;;11;5.4;;;;;;;37.75;20.4248;939.6584;;;;
2022/07/14 10:07:27;;;;;;;0.7;0.7;;;;;;;38.11;21.80078;939.6359;;;;
2022/07/14 10:09:54;;;;;;;25;8.2;;;;;;;38.03;22.48926;939.6263;;;;
2022/07/14 10:12:19;;;;;;;1.2;0.8;;;;;;;36.9;21.41699;939.5751;;;;
2022/07/14 10:14:45;;;;;;;1.8;1.4;;;;;;;35.85;23.53125;939.5959;;;;
2022/07/14 10:17:10;;;;;;;7.5;3.2;;;;;;;35.31;23.22656;939.5673;;;;
2022/07/14 10:19:35;;;;;;;7.5;2.9;;;;;;;34.94;23.7373;939.5159;;;;
2022/07/14 10:22:07;;;;;;;1.9;1.1;;;;;;;34.45;23.94141;939.5059;;;;
2022/07/14 10:24:32;;;;;;;2.8;1.1;;;;;;;33.8;24.4248;939.4507;;;;
2022/07/14 10:26:57;;;;;;;2.8;0.8;;;;;;;33.95;25.71973;939.3959;;;;
2022/07/14 10:29:29;;;;;;;3.6;1.3;;;;;;;33.86;25.15039;939.3258;;;;
2022/07/14 10:31:54;;;;;;;1.1;0.6;;;;;;;33.79;23.83496;939.2681;;;;
2022/07/14 10:34:19;;;;;;;7.9;1.9;;;;;;;34.07;24.72754;939.3539;;;;
2022/07/14 10:36:51;;;;;;;2.2;0.7;;;;;;;33.8;24.56934;939.2425;;;;
2022/07/14 10:39:16;;;;;;;7.5;2;;;;;;;34.05;24.25684;939.2283;;;;
2022/07/14 10:41:46;;;;;;;1.3;0.7;;;;;;;33.59;23.49902;939.1418;;;;
2022/07/14 10:44:12;;;;;;;0.7;0.6;;;;;;;33.7;23.64941;939.1052;;;;
2022/07/14 10:46:38;;;;;;;1.1;0.8;;;;;;;33.83;27.50586;939.0465;;;;
2022/07/14 10:49:04;;;;;;;4.8;1.5;;;;;;;34.06;24.75098;939.0371;;;;
2022/07/14 10:51:32;;;;;;;7;2.4;;;;;;;34.39;22.60059;939.0062;;;;
2022/07/14 10:53:55;;;;;;;2.5;0.9;;;;;;;34.69;22.16895;939.0109;;;;
2022/07/14 10:56:20;;;;;;;4.6;1.2;;;;;;;34.65;20.2627;938.9333;;;;
2022/07/14 10:58:46;;;;;;;0.7;0.4;;;;;;;34.5;19.58105;938.947;;;;
2022/07/14 11:01:11;;;;;;;1.3;0.7;;;;;;;34.4;23.28809;938.8611;;;;
2022/07/14 11:03:42;;;;;;;1.6;0.5;;;;;;;34.48;21.76172;938.9272;;;;
2022/07/14 11:06:09;;;;;;;1.2;0.5;;;;;;;34.27;20.17383;938.8849;;;;
2022/07/14 11:08:36;;;;;;;1.1;0.6;;;;;;;34.34;21.05664;938.8625;;;;
2022/07/14 11:10:59;;;;;;;1.8;0.6;;;;;;;34.35;21.17676;938.8624;;;;
2022/07/14 11:13:29;;;;;;;1.7;0.5;;;;;;;34.08;22.42871;938.8404;;;;
2022/07/14 11:15:56;;;;;;;0.9;0.6;;;;;;;34.36;21.4541;938.7706;;;;
2022/07/14 11:18:26;;;;;;;1.3;0.4;;;;;;;34.77;22.26953;938.764;;;;
2022/07/14 11:20:55;;;;;;;2.7;0.6;;;;;;;34.85;20.45313;938.7899;;;;
2022/07/14 11:23:21;;;;;;;1.9;0.6;;;;;;;34.68;21.81934;938.7642;;;;
2022/07/14 11:25:43;;;;;;;0.7;0.6;;;;;;;34.5;25.88379;938.7822;;;;
2022/07/14 11:28:10;;;;;;;0.8;0.8;;;;;;;33.68;30.94922;938.7874;;;;
2022/07/14 11:30:38;;;;;;;1;0.8;;;;;;;33.31;27.73926;938.7592;;;;
2022/07/14 11:33:03;;;;;;;0.9;0.7;;;;;;;33.41;26.30273;938.7712;;;;
2022/07/14 11:37:58;;;;;;;1;0.6;;;;;;;33.37;29.5459;938.6667;;;;
2022/07/14 11:40:22;;;;;;;1.8;0.6;;;;;;;33.52;30.29004;938.7045;;;;
2022/07/14 11:42:53;;;;;;;1.9;0.8;;;;;;;33.57;28.50098;938.6579;;;;
2022/07/14 11:45:19;;;;;;;0.7;0.6;;;;;;;33.61;28.82813;938.6189;;;;
2022/07/14 11:47:48;;;;;;;1.2;0.8;;;;;;;33.57;29.00586;938.5991;;;;
2022/07/14 11:50:16;;;;;;;2.1;0.8;;;;;;;33.35;32.18945;938.5869;;;;
2022/07/14 11:52:43;;;;;;;0.8;0.8;;;;;;;33.22;32.44434;938.5131;;;;
2022/07/14 11:55:14;;;;;;;2.4;0.9;;;;;;;33.33;31.11816;938.54;;;;
2022/07/14 11:57:43;;;;;;;1.1;0.9;;;;;;;33.21;31.33789;938.5364;;;;
2022/07/14 12:00:15;;;;;;;0.7;0.7;;;;;;;33.27;31.16211;938.5563;;;;
2022/07/14 12:02:40;;;;;;;1;0.8;;;;;;;33.16;31.27441;938.5311;;;;
2022/07/14 12:05:14;;;;;;;1.4;0.7;;;;;;;32.93;33.13184;938.5179;;;;
2022/07/14 12:07:39;;;;;;;2.2;0.8;;;;;;;32.85;30.80859;938.515;;;;
2022/07/14 12:10:05;;;;;;;1.8;0.8;;;;;;;33.04;32.14355;938.4677;;;;
2022/07/14 12:12:31;;;;;;;1;0.7;;;;;;;33.36;29.68945;938.483;;;;
2022/07/14 12:14:58;;;;;;;2.5;1.2;;;;;;;33.71;30.50684;938.449;;;;
2022/07/14 12:17:23;;;;;;;3.7;0.9;;;;;;;33.79;31.08887;938.4026;;;;
2022/07/14 12:19:49;;;;;;;2.7;0.7;;;;;;;33.72;30.42285;938.41;;;;
2022/07/14 12:22:15;;;;;;;1.7;0.7;;;;;;;33.73;30.28027;938.3533;;;;
2022/07/14 12:24:40;;;;;;;5.4;0.8;;;;;;;33.62;30.56055;938.3713;;;;
2022/07/14 12:27:04;;;;;;;1.7;0.9;;;;;;;33.63;29.20215;938.3362;;;;
2022/07/14 12:29:32;;;;;;;3.4;0.9;;;;;;;33.33;34.47168;938.3414;;;;
2022/07/14 12:31:57;;;;;;;0.8;0.7;;;;;;;33.28;33.44629;938.2933;;;;
2022/07/14 12:34:22;;;;;;;1.3;0.6;;;;;;;33.62;30.75293;938.2957;;;;
2022/07/14 12:36:53;;;;;;;1.1;0.9;;;;;;;33.65;29.52832;938.2353;;;;
2022/07/14 12:39:24;;;;;;;1.2;0.8;;;;;;;33.87;28.6875;938.2445;;;;
2022/07/14 12:41:48;;;;;;;1.1;0.8;;;;;;;33.93;30.68945;938.2478;;;;
2022/07/14 12:44:13;;;;;;;1.8;0.9;;;;;;;34.07;31.46973;938.25;;;;
2022/07/14 12:46:40;;;;;;;1.1;0.8;;;;;;;34.14;31.33008;938.2177;;;;
2022/07/14 12:49:10;;;;;;;1.4;0.9;;;;;;;34.27;28.75;938.1931;;;;
2022/07/14 12:51:39;;;;;;;1.1;0.7;;;;;;;33.5;28.37598;938.0997;;;;
2022/07/14 12:54:04;;;;;;;1.1;0.8;;;;;;;33.02;32.10645;938.0455;;;;
2022/07/14 12:56:31;;;;;;;2.1;1;;;;;;;33.1;31.19824;938.075;;;;
2022/07/14 12:58:56;;;;;;;2.5;0.9;;;;;;;33.26;29.9707;938.0324;;;;
2022/07/14 13:01:21;;;;;;;0.9;0.7;;;;;;;33.04;33.21289;938.0161;;;;
2022/07/14 13:03:46;;;;;;;0.8;0.8;;;;;;;33.22;32.37207;937.9941;;;;
2022/07/14 13:06:12;;;;;;;0.7;0.7;;;;;;;33.28;31.23438;937.9594;;;;
2022/07/14 13:08:37;;;;;;;1.1;1;;;;;;;33.31;32.49902;937.9402;;;;
2022/07/14 13:11:54;;;;;;;0.8;0.8;;;;;;;33.45;31.64355;937.9481;;;;
2022/07/14 13:14:18;;;;;;;1;1;;;;;;;33.37;30.86816;937.8989;;;;
2022/07/14 13:16:43;;;;;;;4.3;1.1;;;;;;;32.85;31.28906;937.8943;;;;
2022/07/14 13:19:09;;;;;;;2.6;0.9;;;;;;;32.57;33.4541;937.8208;;;;
2022/07/14 13:21:34;;;;;;;1;0.8;;;;;;;32.64;34.50293;937.8173;;;;
2022/07/14 13:24:04;;;;;;;3.6;1.2;;;;;;;32.88;34.58105;937.7963;;;;
2022/07/14 13:26:30;;;;;;;1;0.9;;;;;;;33.19;32.2373;937.7952;;;;
2022/07/14 13:28:55;;;;;;;2.3;1.2;;;;;;;33.47;30.26172;937.7886;;;;
2022/07/14 13:31:22;;;;;;;3.1;1.4;;;;;;;33.7;31.26367;937.7839;;;;
2022/07/14 13:33:49;;;;;;;2.6;0.9;;;;;;;33.83;29.10645;937.7802;;;;
2022/07/14 13:36:14;;;;;;;3;0.9;;;;;;;33.89;28.93066;937.7444;;;;
2022/07/14 13:38:42;;;;;;;2.8;1;;;;;;;33.72;29.17188;937.718;;;;
2022/07/14 13:41:09;;;;;;;2.8;0.9;;;;;;;33.74;28.77637;937.7293;;;;
2022/07/14 13:43:40;;;;;;;3.4;0.8;;;;;;;33.8;31.43848;937.7088;;;;
2022/07/14 13:46:09;;;;;;;2;1;;;;;;;33.92;28.69141;937.6735;;;;
2022/07/14 13:48:39;;;;;;;1.4;0.8;;;;;;;34.03;28.68652;937.6328;;;;
2022/07/14 13:53:29;;;;;;;2.3;0.9;;;;;;;34.09;28.83496;937.5338;;;;
2022/07/14 13:55:55;;;;;;;1.2;1;;;;;;;34.13;28.77734;937.4642;;;;
2022/07/14 13:58:21;;;;;;;0.9;0.9;;;;;;;34.13;28.53613;937.4124;;;;
2022/07/14 14:00:46;;;;;;;1.6;1;;;;;;;34.16;28.46484;937.3456;;;;
2022/07/14 14:03:26;;;;;;;1.8;1.3;;;;;;;34.16;28.2373;937.3981;;;;
2022/07/14 14:05:43;;;;;;;1.6;1.2;;;;;;;34.19;28.32324;937.3663;;;;
2022/07/14 14:08:10;;;;;;;1.9;1.3;;;;;;;34.2;28.4082;937.3605;;;;
2022/07/14 14:10:37;;;;;;;3.6;1.5;;;;;;;34.26;29.95313;937.3401;;;;
2022/07/14 14:13:02;;;;;;;1.9;1.2;;;;;;;34.28;28.55762;937.2939;;;;
2022/07/14 14:15:35;;;;;;;2.1;1.1;;;;;;;34.28;28.08789;937.2625;;;;
2022/07/14 14:18:01;;;;;;;4;1.5;;;;;;;34.26;30.27832;937.2245;;;;
2022/07/14 14:20:27;;;;;;;1.4;0.9;;;;;;;34;30.10449;937.1841;;;;
2022/07/14 14:22:53;;;;;;;1.7;0.8;;;;;;;33.71;29.66504;937.0842;;;;
2022/07/14 14:25:18;;;;;;;2.5;0.9;;;;;;;33.56;30.85742;937.1379;;;;
2022/07/14 14:27:47;;;;;;;1.8;0.9;;;;;;;33.61;30.7041;937.1091;;;;
2022/07/14 14:30:12;;;;;;;2.5;1;;;;;;;33.66;29.28809;937.0731;;;;
2022/07/14 14:32:40;;;;;;;2.2;1.1;;;;;;;33.75;29.4502;937.0919;;;;
2022/07/14 14:35:12;;;;;;;1.5;1;;;;;;;33.67;29.51758;937.0369;;;;
2022/07/14 14:37:37;;;;;;;1.2;0.8;;;;;;;33.64;29.89941;936.9963;;;;
2022/07/14 14:40:02;;;;;;;2.7;1.5;;;;;;;33.66;29.86523;937.0372;;;;